Terminal Aerodrome Forecast
Issued by NWS

Home | Current Version | Previous Version | Graphics & Text | Print | Product List | Glossary On
Versions: 1 2 3 4 5 6 7 8 9 10 11 12 13 14 15 16
000
FTUS43 KABR 051734
TAFMBG
TAF
KMBG 051734Z 0518/0618 18013KT P6SM SKC
     FM060000 17009KT P6SM SKC
     FM060300 14007KT P6SM SKC
     FM061100 VRB03KT P6SM FEW250
     FM061600 34010KT P6SM FEW250=

USA.gov is the U.S. government's official web portal to all federal, state and local government web resources and services.